User: i am the gull
| Name: | Ivan Kent |
| Registered on: | 2012-06-08 09:43:16 |
| Last Login: | 2016-09-09 00:59:43 |
User Notes:
Owns: 0 Scenarios
Played: 59 (50 unique scenarios: )
Playing Record:
Rating: 875 Show Calculations
View Uploaded Files?
Best winning streak: 2 games won (From 2014-02-20 to 2014-03-01 [9 days])
Worst losing streak: 7 games lost (From 2014-03-02 to 2014-10-23 [235 days])
| Date | Calculations | New Rating |
|---|---|---|
| 2012-10-06 | ** Ivan Kent [Rating: 1000] expected: 0.69368791642197 vs Rich Weiley (1142) | 990 |
| 2012-10-06 | ** Ivan Kent [Rating: 990.1980133255] expected: 0.71736066964553 vs Rich Weiley (1152) | 981 |
| 2012-11-03 | ** Ivan Kent [Rating: 981.15355475416] expected: 0.33880286604393 vs CloseAssaultPete (865) | 992 |
| 2013-01-05 | ** Ivan Kent [Rating: 991.99524646757] expected: 0.34809416955866 vs CloseAssaultPete (883) | 971 |
| 2013-03-08 | ** Ivan Kent [Rating: 971.13425989344] expected: 0.4911730075707 vs Andruz61 (965) | 955 |
| 2013-04-01 | ** Ivan Kent [Rating: 954.85179613571] expected: 0.57730067426006 vs SteffenK (1009) | 973 |
| 2013-04-20 | ** Ivan Kent [Rating: 973.32541771203] expected: 0.50672685877912 vs Andruz61 (978) | 958 |
| 2013-05-04 | ** Ivan Kent [Rating: 957.54067719296] expected: 0.69057148428569 vs Rich Weiley (1097) | 948 |
| 2013-06-17 | ** Ivan Kent [Rating: 947.6389646901] expected: 0.58879325042179 vs Andruz61 (1010) | 934 |
| 2013-07-02 | ** Ivan Kent [Rating: 934.4803487036] expected: 0.62470333983192 vs Andruz61 (1023) | 954 |
| 2013-07-13 | ** Ivan Kent [Rating: 954.47085557822] expected: 0.54667689315376 vs Andruz61 (987) | 940 |
| 2013-08-01 | ** Ivan Kent [Rating: 939.96451615914] expected: 0.60770976083313 vs Andruz61 (1016) | 927 |
| 2013-09-17 | ** Ivan Kent [Rating: 927.4112285058] expected: 0.75079814869774 vs FJ_MD (1119) | 919 |
| 2013-09-28 | ** Ivan Kent [Rating: 919.43676926413] expected: 0.6694128502487 vs Andruz61 (1042) | 909 |
| 2013-10-02 | ** Ivan Kent [Rating: 908.85798047209] expected: 0.55751332155258 vs rdewhurst (949) | 895 |
| 2013-10-11 | ** Ivan Kent [Rating: 894.69840676177] expected: 0.60395166062185 vs esparver73 (968) | 914 |
| 2013-10-31 | ** Ivan Kent [Rating: 914.02485990167] expected: 0.68997559660524 vs Andruz61 (1053) | 904 |
| 2013-11-10 | ** Ivan Kent [Rating: 904.10407899304] expected: 0.71395656303593 vs Andruz61 (1063) | 911 |
| 2013-11-21 | ** Ivan Kent [Rating: 910.95068901019] expected: 0.51877064251217 vs esparver73 (924) | 896 |
| 2013-11-25 | ** Ivan Kent [Rating: 895.55134957058] expected: 0.71577845501305 vs Andruz61 (1056) | 886 |
| 2013-12-14 | ** Ivan Kent [Rating: 886.45626013099] expected: 0.64343150275341 vs rdewhurst (989) | 875 |
| 2013-12-22 | ** Ivan Kent [Rating: 875.0460682191] expected: 0.74903321510441 vs Andruz61 (1065) | 867 |
| 2014-01-11 | ** Ivan Kent [Rating: 867.01513110244] expected: 0.78011466331252 vs Andruz61 (1087) | 860 |
| 2014-02-20 | ** Ivan Kent [Rating: 859.97880032844] expected: 0.65844196667521 vs rdewhurst (974) | 881 |
| 2014-03-01 | ** Ivan Kent [Rating: 881.04894326205] expected: 0.79453592518504 vs Rich Weiley (1116) | 906 |
| 2014-03-02 | ** Ivan Kent [Rating: 906.47409286797] expected: 0.71936839243948 vs Andruz61 (1070) | 897 |
| 2014-06-05 | ** Ivan Kent [Rating: 897.49388142603] expected: 0.69062904271643 vs Andruz61 (1037) | 888 |
| 2014-07-15 | ** Ivan Kent [Rating: 887.59401079296] expected: 0.72729384542301 vs Andruz61 (1058) | 879 |
| 2014-09-23 | ** Ivan Kent [Rating: 878.8674138465] expected: 0.71891108705206 vs Andruz61 (1042) | 870 |
| 2014-10-02 | ** Ivan Kent [Rating: 869.87256863216] expected: 0.75352234346557 vs Andruz61 (1064) | 862 |
| 2014-10-11 | ** Ivan Kent [Rating: 861.98528362306] expected: 0.79740000023816 vs Rich Weiley (1100) | 856 |
| 2014-10-23 | ** Ivan Kent [Rating: 855.50208363068] expected: 0.81578294654955 vs Andruz61 (1114) | 850 |
| 2014-11-02 | ** Ivan Kent [Rating: 849.60713792027] expected: 0.83477134185301 vs Andruz61 (1131) | 876 |
| 2014-11-19 | ** Ivan Kent [Rating: 876.31982085956] expected: 0.80443522538712 vs Andruz61 (1122) | 902 |
| 2014-12-03 | ** Ivan Kent [Rating: 902.06174807195] expected: 0.44402128836464 vs CloseAssaultPete (863) | 884 |
| 2014-12-13 | ** Ivan Kent [Rating: 884.27042929962] expected: 0.79149204549611 vs Andruz61 (1116) | 910 |
| 2014-12-19 | ** Ivan Kent [Rating: 909.5981747555] expected: 0.73966591058569 vs Andruz61 (1091) | 933 |
| 2015-01-25 | ** Ivan Kent [Rating: 933.26748389424] expected: 0.47086578565885 vs CloseAssaultPete (913) | 916 |
| 2015-03-23 | ** Ivan Kent [Rating: 916.33518903532] expected: 0.65668381124643 vs rdewhurst (1029) | 937 |
| 2015-04-25 | ** Ivan Kent [Rating: 937.34907099521] expected: 0.54256782239835 vs rcarter (967) | 923 |
| 2015-06-14 | ** Ivan Kent [Rating: 922.71124131195] expected: 0.52629535672547 vs CloseAssaultPete (941) | 940 |
| 2015-06-21 | ** Ivan Kent [Rating: 939.55269272717] expected: 0.7134288815889 vs Andruz61 (1098) | 930 |
| 2015-07-04 | ** Ivan Kent [Rating: 930.38241693801] expected: 0.72179269707784 vs Rich Weiley (1096) | 921 |
| 2015-09-05 | ** Ivan Kent [Rating: 921.4797832445] expected: 0.50362681984697 vs CloseAssaultPete (924) | 906 |
| 2015-12-05 | ** Ivan Kent [Rating: 905.59584147961] expected: 0.67048322917732 vs Andruz61 (1029) | 895 |
| 2016-01-23 | ** Ivan Kent [Rating: 895.05130481328] expected: 0.73018723231986 vs Andruz61 (1068) | 886 |
| 2016-03-14 | ** Ivan Kent [Rating: 886.41729624752] expected: 0.43925809405745 vs wwillow (844) | 900 |
| 2016-05-24 | ** Ivan Kent [Rating: 900.47355525736] expected: 0.67822229480204 vs ppalma (1030) | 890 |
| 2016-06-12 | ** Ivan Kent [Rating: 890.17666869102] expected: 0.54709653921455 vs CloseAssaultPete (923) | 908 |
| 2016-09-03 | ** Ivan Kent [Rating: 907.68375794589] expected: 0.62846996839862 vs Rich Weiley (999) | 896 |
| 2016-10-02 | ** Ivan Kent [Rating: 895.79479693464] expected: 0.59829769596023 vs jwert02 (965) | 915 |
| 2016-12-27 | ** Ivan Kent [Rating: 914.94032320537] expected: 0.67763562667345 vs Andruz61 (1044) | 905 |
| 2017-01-22 | ** Ivan Kent [Rating: 904.62466325892] expected: 0.74294840068148 vs Will Fleming (1089) | 896 |
| 2017-01-28 | ** Ivan Kent [Rating: 896.39901208073] expected: 0.49654759895809 vs CloseAssaultPete (894) | 880 |
| 2017-04-09 | ** Ivan Kent [Rating: 880.28853524739] expected: 0.76569682057593 vs esparver73 (1086) | 873 |
| 2017-05-06 | ** Ivan Kent [Rating: 872.79083350582] expected: 0.71783566645897 vs Rich Weiley (1035) | 864 |
| 2017-07-30 | ** Ivan Kent [Rating: 863.7615748325] expected: 0.51329203000403 vs CloseAssaultPete (873) | 880 |
| 2019-03-28 | ** Ivan Kent [Rating: 880.18691979263] expected: 0.85325995054225 vs buser333 (1186) | 875 |
Games logged: 0 Played Won Lost
Games won: 17
Attacking Win: 25.81% (31 attempts)
Defending Win: 32.14% (28 attempts)
Opponent filter:
|
Publication reviews
|
| Publication | Headline | Score | Date |
View Uploaded Files?
To-play list
Seek list:
|
Publications wanted
|
Games played Search & filter
Grey rows indicate games logged by your opponent.
| Scenario | ID | Opponent | Side | Date | Result | Publication | Rating | Log |
|---|---|---|---|---|---|---|---|---|
| Grab and Go | J188 | Jeff B | A Russian | 2019-03-28 | Lost | ASL Journal #12 | 7 | — |
| By Dawn's Early Light | FT168 | Peter Palmer | D German | 2017-07-30 | Won | From The Cellar Pack # 6 | 5 | — |
| In Deadly Combat | J187 | Rich Weiley | A Russian | 2017-05-06 | Lost | ASL Journal #12 | 8 | — |
| A Polish Requiem | BoF02 | Martí Cabré | D German | 2017-04-09 | Lost | Best of Friends | 8 | — |
| Maximum Aggression | J166 | Peter Palmer | D Japanese | 2017-01-28 | Lost | ASL Journal #11 | 5 | — |
| City of Eternal Heroes | FB CG III | Neil Andrews | A Russian | 2016-12-27 | Lost | HASL 8 - Festung Budapest | 10 | — |
| Urban Nightmare | DB073 | Jason Wert | D Russian | 2016-10-02 | Won | Dispatches from the Bunker #28 | 8 | — |
| Pavlov's House | VotG14 | Rich Weiley | D German | 2016-09-03 | Lost | HASL 7 - Valor of the Guards | 8 | — |
| Costly Baptism | BFP-107 | Peter Palmer | D German | 2016-06-12 | Won | BFP 5: Poland in Flames | 5 | — |
| Helluva Patrol Leader | AP106 | patrick palma | D American | 2016-05-24 | Lost | ASL Action Pack #11 29 Let's Go! | 7 | — |
| Full Moon Madness | AP88 | Will Willow | D Japanese | 2016-03-14 | Won | ASL Action Pack # 9 To the Bridge! | 5 | — |
| Bite of the Bassotto | FrF51 | Neil Andrews | A New Zealand | 2016-01-23 | Lost | Friendly Fire Pack 6 | 7 | — |
| Flaming Star | RPT105 | Neil Andrews | A Russian | 2015-12-05 | Lost | Rally Point #11 | 8 | — |
| Hundred Regiments Offensive | BFP-34 | Peter Palmer | A Red Chinese | 2015-09-05 | Lost | BFP 3: Blood and Jungle | 7 | — |
| Best Think Again | AP93 | Rich Weiley | D Russian | 2015-07-04 | Lost | ASL Action Pack #10 | 7 | — |
| Pearl of the Danube | FB CG I | Neil Andrews | A Russian | 2015-06-21 | Lost | HASL 8 - Festung Budapest | 10 | — |
| The Red Wave | A 107 | Peter Palmer | A Russian | 2015-06-14 | Won | AH:ASL Annual `97 | 5 | — |
| Battle for the Warta Line | U15 | Richard Carter | D German (SS) | 2015-04-25 | Lost | Turning the Tide | 7 | — |
| Village of the Damned | AP18 | Russell Dewhurst | D Russian | 2015-03-23 | Won | ASL Action Pack # 3 Few Returned | 5 | — |
| Milling About | AP86 | Peter Palmer | A Japanese/Burmese | 2015-01-25 | Lost | ASL Action Pack # 9 To the Bridge! | 5 | — |
| HKL 259 | FB04 | Neil Andrews | A Russian | 2014-12-19 | Won | HASL 8 - Festung Budapest | 7 | — |
| Furor Hungaricus | FB03 | Neil Andrews | D German / Hungarian (Vannay) | 2014-12-13 | Won | HASL 8 - Festung Budapest | 7 | — |
| Scorpions in a Bottle | ESG #74 | Peter Palmer | A German | 2014-12-03 | Lost | Dezign Pak 6 | 5 | — |
| The Devil's Free to Have a Try | FB02 | Neil Andrews | A Russian | 2014-11-19 | Won | HASL 8 - Festung Budapest | 8 | — |
| Uncles and Pups | FB01 | Neil Andrews | A Russian | 2014-11-02 | Won | HASL 8 - Festung Budapest | 9 | — |
| Round One | 84 | Neil Andrews | D German | 2014-10-23 | Lost | ASL 11 - Doomed Battalions (2nd Edition) | 9 | — |
| Shock At Kamenewo | DB065 | Rich Weiley | D Russian | 2014-10-11 | Lost | Dispatches from the Bunker #26 | 7 | — |
| Round One | 84 | Neil Andrews | A German | 2014-10-02 | Lost | ASL 11 - Doomed Battalions (2nd Edition) | 9 | — |
| The Kiwis Attack | GD-B | Neil Andrews | A New Zealand | 2014-09-23 | Lost | AH:The General # 29.6 | 7 | — |
| The Kiwis Attack | GD-B | Neil Andrews | D New Zealand | 2014-07-15 | Lost | AH:The General # 29.6 | 7 | — |
| Astride Hell's Highway | WO05 | Neil Andrews | D German | 2014-06-05 | Lost | Winter Offensive Bonus Pack # 2 2011 | 5 | — |
| Hell or High Water | 73 | Neil Andrews | D American (USMC) | 2014-03-02 | Lost | ASL 9 - Gung Ho! | 8 | — |
| Astride Hell's Highway | WO05 | Rich Weiley | A German | 2014-03-01 | Won | Winter Offensive Bonus Pack # 2 2011 | 7 | — |
| Broken Bamboo | 156 | Russell Dewhurst | D Gurkha | 2014-02-20 | Won | ASL 13 - Rising Sun | 5 | — |
| Colonel Saeki's Raid | FE 129 | Neil Andrews | A Japanese | 2014-01-11 | Lost | Fanatic Pack 4 | 7 | — |
| Hell or High Water | 73 | Neil Andrews | A American (USMC) | 2013-12-22 | Lost | ASL 9 - Gung Ho! | 7 | — |
| The Drive For Taierzhuang | 146 | Russell Dewhurst | D Japanese | 2013-12-14 | Lost | ASL 13 - Rising Sun | 7 | — |
| Shootout at Singling | ASLUG 5 | Neil Andrews | A American | 2013-11-25 | Lost | ASLUG # 3 | 6 | — |
| To Have and To Hold | BoF10 | Martí Cabré | D German | 2013-11-21 | Lost | Best of Friends | 9 | — |
| Hell or High Water | 73 | Neil Andrews | A American (USMC) | 2013-11-10 | Tie | ASL 9 - Gung Ho! | 7 | — |
| The Generalissimo's Own | AP55 | Neil Andrews | A Chinese | 2013-10-31 | Lost | ASL Action Pack # 6 A Decade of War | 9 | — |
| Slamming of the Door | 129 | Martí Cabré | A Russian | 2013-10-11 | Won | ASL 1 - Beyond Valor (3rd Edition) | 5 | — |
| Kleckerweise | AP57 | Russell Dewhurst | A French | 2013-10-02 | Lost | ASL Action Pack # 6 A Decade of War | 8 | — |
| The Generalissimo's Own | AP55 | Neil Andrews | D Chinese | 2013-09-28 | Lost | ASL Action Pack # 6 A Decade of War | 9 | — |
| Nishne, Nyet! | AP60 | Davide Bendazzi | A German | 2013-09-17 | Lost | ASL Action Pack # 6 A Decade of War | 7 | — |
| Gabriel's Horn | AP75 | Neil Andrews | D German | 2013-08-01 | Lost | ASL Action Pack # 8 Roads Through Rome | 6 | — |
| Gabriel's Horn | AP75 | Neil Andrews | A German | 2013-07-13 | Lost | ASL Action Pack # 8 Roads Through Rome | 6 | — |
| Last Push To Mozhaisk | J115 | Neil Andrews | D German | 2013-07-02 | Won | ASL Journal # 8 | 6 | — |
| Last Push To Mozhaisk | J115 | Neil Andrews | A German | 2013-06-17 | Lost | ASL Journal # 8 | 6 | — |
| Forth Bridge | G37 | Rich Weiley | A British | 2013-05-04 | Lost | AH:The General # 31.3 | 7 | — |
| Brigade Hill | BC7 | Neil Andrews | D Australian | 2013-04-20 | Lost | Aussie Tournament Pack | 9 | — |
| Point To Make | J138 | Steffen Knippel | D British | 2013-04-01 | Won | ASL Journal # 9 | 8 | — |
| Brigade Hill | BC7 | Neil Andrews | A Australian | 2013-03-08 | Lost | Aussie Tournament Pack | 8 | — |
| Good Night, Sweet Prince | 87 | Peter Palmer | D German | 2013-01-05 | Lost | ASL 11 - Doomed Battalions (2nd Edition) | 5 | — |
| Art Nouveau | 88 | Peter Palmer | A German | 2012-11-03 | Won | ASL 11 - Doomed Battalions (2nd Edition) | 5 | — |
| Panzers Forward! | OA17 | Rich Weiley | D German | 2012-10-06 | Lost | Out of the Attic #2 | 6 | — |
| L'Union Fait la Force | TAC51 | Rich Weiley | A Belgian | 2012-10-06 | Lost | Tactiques # 7 | 6 | — |
Worst losing streak: 7 games lost (From 2014-03-02 to 2014-10-23 [235 days])
Publications owned Progress by publication
| Publication | Plays | Completion | % |
|---|